sensor_id;sensor_type;location;lat;lon;timestamp;pressure;altitude;pressure_sealevel;temperature;humidity
63739;BME280;68816;45.558;10.070;2024-03-06T00:01:47;99442.41;;;11.36;100.00
63739;BME280;68816;45.558;10.070;2024-03-06T00:04:13;99451.94;;;11.23;100.00
63739;BME280;68816;45.558;10.070;2024-03-06T00:06:38;99451.47;;;11.31;100.00
63739;BME280;68816;45.558;10.070;2024-03-06T00:09:04;99450.38;;;11.32;100.00
63739;BME280;68816;45.558;10.070;2024-03-06T00:11:30;99443.16;;;11.31;100.00
63739;BME280;68816;45.558;10.070;2024-03-06T00:13:55;99443.53;;;11.35;100.00
63739;BME280;68816;45.558;10.070;2024-03-06T00:16:21;99441.44;;;11.25;100.00
63739;BME280;68816;45.558;10.070;2024-03-06T00:18:46;99444.72;;;11.22;100.00
63739;BME280;68816;45.558;10.070;2024-03-06T00:21:12;99447.25;;;11.24;100.00
63739;BME280;68816;45.558;10.070;2024-03-06T00:23:37;99444.78;;;11.27;100.00
63739;BME280;68816;45.558;10.070;2024-03-06T00:26:03;99443.63;;;11.23;100.00
63739;BME280;68816;45.558;10.070;2024-03-06T00:28:29;99447.81;;;11.26;100.00
63739;BME280;68816;45.558;10.070;2024-03-06T00:30:55;99441.59;;;11.19;100.00
63739;BME280;68816;45.558;10.070;2024-03-06T00:33:20;99440.44;;;11.15;100.00
63739;BME280;68816;45.558;10.070;2024-03-06T00:35:46;99449.34;;;11.17;100.00
63739;BME280;68816;45.558;10.070;2024-03-06T00:38:11;99447.81;;;11.26;100.00
63739;BME280;68816;45.558;10.070;2024-03-06T00:40:38;99456.19;;;11.31;100.00
63739;BME280;68816;45.558;10.070;2024-03-06T00:43:04;99469.13;;;11.08;100.00
63739;BME280;68816;45.558;10.070;2024-03-06T00:45:30;99480.81;;;10.94;100.00
63739;BME280;68816;45.558;10.070;2024-03-06T00:47:55;99476.38;;;10.93;100.00
63739;BME280;68816;45.558;10.070;2024-03-06T00:50:21;99459.16;;;11.07;100.00
63739;BME280;68816;45.558;10.070;2024-03-06T00:52:47;99460.72;;;11.20;100.00
63739;BME280;68816;45.558;10.070;2024-03-06T00:55:14;99454.16;;;11.04;100.00
63739;BME280;68816;45.558;10.070;2024-03-06T00:57:39;99459.31;;;11.01;100.00
63739;BME280;68816;45.558;10.070;2024-03-06T01:00:05;99463.03;;;11.06;100.00
63739;BME280;68816;45.558;10.070;2024-03-06T01:02:39;99455.22;;;11.03;100.00
63739;BME280;68816;45.558;10.070;2024-03-06T01:05:05;99447.00;;;11.08;90.77
63739;BME280;68816;45.558;10.070;2024-03-06T01:07:33;99446.50;;;11.11;94.24
63739;BME280;68816;45.558;10.070;2024-03-06T01:10:00;99460.06;;;11.13;95.28
63739;BME280;68816;45.558;10.070;2024-03-06T01:12:26;99478.28;;;11.09;96.09
63739;BME280;68816;45.558;10.070;2024-03-06T01:14:52;99476.13;;;10.94;93.48
63739;BME280;68816;45.558;10.070;2024-03-06T01:17:18;99463.28;;;11.05;88.16
63739;BME280;68816;45.558;10.070;2024-03-06T01:19:44;99464.78;;;10.96;80.01
63739;BME280;68816;45.558;10.070;2024-03-06T01:22:10;99456.25;;;10.64;81.64
63739;BME280;68816;45.558;10.070;2024-03-06T01:24:35;99461.28;;;10.67;83.45
63739;BME280;68816;45.558;10.070;2024-03-06T01:27:01;99466.97;;;10.44;91.08
63739;BME280;68816;45.558;10.070;2024-03-06T01:29:29;99483.97;;;10.36;95.22
63739;BME280;68816;45.558;10.070;2024-03-06T01:31:55;99489.72;;;10.06;98.65
63739;BME280;68816;45.558;10.070;2024-03-06T01:34:20;99482.84;;;10.08;95.78
63739;BME280;68816;45.558;10.070;2024-03-06T01:36:47;99486.03;;;10.00;98.71
63739;BME280;68816;45.558;10.070;2024-03-06T01:39:13;99492.88;;;9.98;100.00
63739;BME280;68816;45.558;10.070;2024-03-06T01:41:45;99484.94;;;10.01;100.00
63739;BME280;68816;45.558;10.070;2024-03-06T01:44:10;99485.88;;;10.07;100.00
63739;BME280;68816;45.558;10.070;2024-03-06T01:46:36;99473.38;;;10.04;100.00
63739;BME280;68816;45.558;10.070;2024-03-06T01:49:02;99476.25;;;9.81;100.00
63739;BME280;68816;45.558;10.070;2024-03-06T01:51:27;99478.72;;;9.94;100.00
63739;BME280;68816;45.558;10.070;2024-03-06T01:53:53;99478.13;;;10.20;100.00
63739;BME280;68816;45.558;10.070;2024-03-06T01:56:19;99477.25;;;10.32;100.00
63739;BME280;68816;45.558;10.070;2024-03-06T01:58:46;99477.38;;;10.37;100.00
63739;BME280;68816;45.558;10.070;2024-03-06T02:01:12;99486.91;;;10.46;100.00
63739;BME280;68816;45.558;10.070;2024-03-06T02:03:38;99479.84;;;10.38;100.00
63739;BME280;68816;45.558;10.070;2024-03-06T02:06:05;99476.09;;;10.44;100.00
63739;BME280;68816;45.558;10.070;2024-03-06T02:08:31;99479.22;;;10.48;100.00
63739;BME280;68816;45.558;10.070;2024-03-06T02:10:58;99482.47;;;10.45;100.00
63739;BME280;68816;45.558;10.070;2024-03-06T02:13:27;99483.06;;;10.47;100.00
63739;BME280;68816;45.558;10.070;2024-03-06T02:15:52;99489.06;;;10.44;100.00
63739;BME280;68816;45.558;10.070;2024-03-06T02:18:18;99479.22;;;10.48;100.00
63739;BME280;68816;45.558;10.070;2024-03-06T02:20:43;99483.06;;;10.47;100.00
63739;BME280;68816;45.558;10.070;2024-03-06T02:23:11;99483.38;;;10.34;100.00
63739;BME280;68816;45.558;10.070;2024-03-06T02:25:36;99496.94;;;10.35;100.00
63739;BME280;68816;45.558;10.070;2024-03-06T02:28:02;99508.84;;;10.36;100.00
63739;BME280;68816;45.558;10.070;2024-03-06T02:30:27;99506.91;;;10.36;100.00
63739;BME280;68816;45.558;10.070;2024-03-06T02:32:56;99508.56;;;10.09;100.00
63739;BME280;68816;45.558;10.070;2024-03-06T02:35:21;99494.84;;;10.14;100.00
63739;BME280;68816;45.558;10.070;2024-03-06T02:37:47;99490.00;;;9.93;100.00
63739;BME280;68816;45.558;10.070;2024-03-06T02:40:12;99497.88;;;10.12;100.00
63739;BME280;68816;45.558;10.070;2024-03-06T02:42:38;99497.16;;;10.05;100.00
63739;BME280;68816;45.558;10.070;2024-03-06T02:45:05;99504.38;;;10.06;100.00
63739;BME280;68816;45.558;10.070;2024-03-06T02:47:31;99504.72;;;10.10;100.00
63739;BME280;68816;45.558;10.070;2024-03-06T02:49:57;99499.13;;;9.93;100.00
63739;BME280;68816;45.558;10.070;2024-03-06T02:52:22;99490.94;;;9.98;100.00
63739;BME280;68816;45.558;10.070;2024-03-06T02:54:48;99496.84;;;9.90;100.00
63739;BME280;68816;45.558;10.070;2024-03-06T02:57:13;99494.31;;;10.00;100.00
63739;BME280;68816;45.558;10.070;2024-03-06T02:59:42;99493.72;;;9.98;100.00
63739;BME280;68816;45.558;10.070;2024-03-06T03:02:08;99491.22;;;9.85;100.00
63739;BME280;68816;45.558;10.070;2024-03-06T03:04:33;99493.56;;;10.05;100.00
63739;BME280;68816;45.558;10.070;2024-03-06T03:06:59;99490.84;;;9.93;100.00
63739;BME280;68816;45.558;10.070;2024-03-06T03:09:24;99498.38;;;9.98;100.00
63739;BME280;68816;45.558;10.070;2024-03-06T03:11:50;99494.44;;;9.94;100.00
63739;BME280;68816;45.558;10.070;2024-03-06T03:14:15;99500.72;;;9.89;100.00
63739;BME280;68816;45.558;10.070;2024-03-06T03:16:41;99506.13;;;9.84;100.00
63739;BME280;68816;45.558;10.070;2024-03-06T03:19:07;99494.16;;;9.67;100.00
63739;BME280;68816;45.558;10.070;2024-03-06T03:21:34;99486.41;;;9.40;100.00
63739;BME280;68816;45.558;10.070;2024-03-06T03:24:00;99473.59;;;9.34;100.00
63739;BME280;68816;45.558;10.070;2024-03-06T03:26:25;99475.63;;;9.39;100.00
63739;BME280;68816;45.558;10.070;2024-03-06T03:28:51;99473.94;;;9.26;100.00
63739;BME280;68816;45.558;10.070;2024-03-06T03:31:16;99478.16;;;9.17;100.00
63739;BME280;68816;45.558;10.070;2024-03-06T03:33:42;99483.47;;;9.07;100.00
63739;BME280;68816;45.558;10.070;2024-03-06T03:36:08;99495.69;;;8.99;100.00
63739;BME280;68816;45.558;10.070;2024-03-06T03:38:35;99486.69;;;9.04;100.00
63739;BME280;68816;45.558;10.070;2024-03-06T03:41:10;99498.78;;;9.03;100.00
63739;BME280;68816;45.558;10.070;2024-03-06T03:43:35;99500.13;;;9.12;100.00
63739;BME280;68816;45.558;10.070;2024-03-06T03:46:01;99508.63;;;8.99;100.00
63739;BME280;68816;45.558;10.070;2024-03-06T03:48:27;99506.09;;;9.09;100.00
63739;BME280;68816;45.558;10.070;2024-03-06T03:50:53;99490.66;;;9.08;100.00
63739;BME280;68816;45.558;10.070;2024-03-06T03:53:18;99497.13;;;9.02;100.00
63739;BME280;68816;45.558;10.070;2024-03-06T03:55:43;99492.19;;;8.92;100.00
63739;BME280;68816;45.558;10.070;2024-03-06T03:58:09;99491.34;;;8.92;100.00
63739;BME280;68816;45.558;10.070;2024-03-06T04:00:35;99501.53;;;8.91;100.00
63739;BME280;68816;45.558;10.070;2024-03-06T04:03:00;99502.75;;;8.95;100.00
63739;BME280;68816;45.558;10.070;2024-03-06T04:05:26;99495.44;;;8.89;100.00
63739;BME280;68816;45.558;10.070;2024-03-06T04:07:53;99491.25;;;8.98;100.00
63739;BME280;68816;45.558;10.070;2024-03-06T04:10:19;99498.09;;;9.07;100.00
63739;BME280;68816;45.558;10.070;2024-03-06T04:12:44;99499.41;;;9.05;100.00
63739;BME280;68816;45.558;10.070;2024-03-06T04:15:10;99505.25;;;9.20;100.00
63739;BME280;68816;45.558;10.070;2024-03-06T04:17:35;99501.31;;;9.16;100.00
63739;BME280;68816;45.558;10.070;2024-03-06T04:20:02;99511.16;;;9.24;100.00
63739;BME280;68816;45.558;10.070;2024-03-06T04:22:28;99507.66;;;9.17;100.00
63739;BME280;68816;45.558;10.070;2024-03-06T04:24:54;99507.44;;;9.18;99.48
63739;BME280;68816;45.558;10.070;2024-03-06T04:27:21;99511.50;;;9.16;100.00
63739;BME280;68816;45.558;10.070;2024-03-06T04:29:46;99505.88;;;9.22;99.16
63739;BME280;68816;45.558;10.070;2024-03-06T04:32:12;99507.44;;;9.30;99.75
63739;BME280;68816;45.558;10.070;2024-03-06T04:34:37;99515.81;;;9.23;100.00
63739;BME280;68816;45.558;10.070;2024-03-06T04:37:03;99522.41;;;9.22;99.89
63739;BME280;68816;45.558;10.070;2024-03-06T04:39:28;99513.06;;;9.23;100.00
63739;BME280;68816;45.558;10.070;2024-03-06T04:41:53;99512.34;;;9.28;100.00
63739;BME280;68816;45.558;10.070;2024-03-06T04:44:19;99526.38;;;9.15;99.98
63739;BME280;68816;45.558;10.070;2024-03-06T04:46:44;99529.38;;;9.13;100.00
63739;BME280;68816;45.558;10.070;2024-03-06T04:49:10;99533.84;;;9.14;100.00
63739;BME280;68816;45.558;10.070;2024-03-06T04:51:35;99534.53;;;9.21;100.00
63739;BME280;68816;45.558;10.070;2024-03-06T04:54:01;99523.88;;;9.36;100.00
63739;BME280;68816;45.558;10.070;2024-03-06T04:56:26;99522.78;;;9.37;100.00
63739;BME280;68816;45.558;10.070;2024-03-06T04:58:52;99523.38;;;9.28;99.85
63739;BME280;68816;45.558;10.070;2024-03-06T05:01:19;99518.94;;;9.27;100.00
63739;BME280;68816;45.558;10.070;2024-03-06T05:03:44;99527.81;;;9.17;100.00
63739;BME280;68816;45.558;10.070;2024-03-06T05:06:09;99520.72;;;9.21;100.00
63739;BME280;68816;45.558;10.070;2024-03-06T05:08:35;99525.91;;;9.29;100.00
63739;BME280;68816;45.558;10.070;2024-03-06T05:11:01;99521.81;;;9.20;100.00
63739;BME280;68816;45.558;10.070;2024-03-06T05:13:27;99531.19;;;9.19;100.00
63739;BME280;68816;45.558;10.070;2024-03-06T05:15:52;99530.34;;;9.19;100.00
63739;BME280;68816;45.558;10.070;2024-03-06T05:18:20;99532.50;;;9.17;100.00
63739;BME280;68816;45.558;10.070;2024-03-06T05:20:45;99530.22;;;9.14;100.00
63739;BME280;68816;45.558;10.070;2024-03-06T05:23:11;99527.72;;;9.12;100.00
63739;BME280;68816;45.558;10.070;2024-03-06T05:25:38;99532.03;;;9.08;100.00
63739;BME280;68816;45.558;10.070;2024-03-06T05:28:04;99519.44;;;9.00;100.00
63739;BME280;68816;45.558;10.070;2024-03-06T05:30:30;99526.63;;;9.01;100.00
63739;BME280;68816;45.558;10.070;2024-03-06T05:32:55;99526.00;;;8.88;100.00
63739;BME280;68816;45.558;10.070;2024-03-06T05:35:21;99531.63;;;8.81;100.00
63739;BME280;68816;45.558;10.070;2024-03-06T05:37:46;99535.84;;;8.84;100.00
63739;BME280;68816;45.558;10.070;2024-03-06T05:40:12;99542.53;;;8.76;100.00
63739;BME280;68816;45.558;10.070;2024-03-06T05:42:38;99544.44;;;8.76;100.00
63739;BME280;68816;45.558;10.070;2024-03-06T05:45:04;99546.00;;;8.72;100.00
63739;BME280;68816;45.558;10.070;2024-03-06T05:47:36;99552.25;;;8.79;100.00
63739;BME280;68816;45.558;10.070;2024-03-06T05:50:02;99549.75;;;8.89;100.00
63739;BME280;68816;45.558;10.070;2024-03-06T05:52:31;99561.81;;;8.76;100.00
63739;BME280;68816;45.558;10.070;2024-03-06T05:54:57;99557.63;;;8.85;100.00
63739;BME280;68816;45.558;10.070;2024-03-06T05:57:22;99561.59;;;8.78;100.00
63739;BME280;68816;45.558;10.070;2024-03-06T05:59:48;99574.03;;;8.69;100.00
63739;BME280;68816;45.558;10.070;2024-03-06T06:02:13;99568.78;;;8.79;100.00
63739;BME280;68816;45.558;10.070;2024-03-06T06:04:41;99575.72;;;8.70;100.00
63739;BME280;68816;45.558;10.070;2024-03-06T06:07:07;99586.63;;;8.76;100.00
63739;BME280;68816;45.558;10.070;2024-03-06T06:09:32;99583.41;;;8.79;100.00
63739;BME280;68816;45.558;10.070;2024-03-06T06:11:58;99581.88;;;8.83;100.00
63739;BME280;68816;45.558;10.070;2024-03-06T06:14:24;99576.69;;;8.87;100.00
63739;BME280;68816;45.558;10.070;2024-03-06T06:16:52;99590.47;;;8.75;100.00
63739;BME280;68816;45.558;10.070;2024-03-06T06:19:17;99588.16;;;8.60;100.00
63739;BME280;68816;45.558;10.070;2024-03-06T06:21:43;99600.88;;;8.61;100.00
63739;BME280;68816;45.558;10.070;2024-03-06T06:24:08;99596.34;;;8.79;100.00
63739;BME280;68816;45.558;10.070;2024-03-06T06:26:34;99605.50;;;8.91;100.00
63739;BME280;68816;45.558;10.070;2024-03-06T06:29:00;99615.88;;;8.77;100.00
63739;BME280;68816;45.558;10.070;2024-03-06T06:31:26;99620.22;;;8.85;100.00
63739;BME280;68816;45.558;10.070;2024-03-06T06:33:53;99616.53;;;8.91;100.00
63739;BME280;68816;45.558;10.070;2024-03-06T06:36:18;99622.31;;;9.13;100.00
63739;BME280;68816;45.558;10.070;2024-03-06T06:38:45;99626.28;;;9.17;100.00
63739;BME280;68816;45.558;10.070;2024-03-06T06:41:11;99624.75;;;9.44;100.00
63739;BME280;68816;45.558;10.070;2024-03-06T06:43:36;99619.94;;;9.63;100.00
63739;BME280;68816;45.558;10.070;2024-03-06T06:46:01;99626.66;;;9.67;100.00
63739;BME280;68816;45.558;10.070;2024-03-06T06:48:30;99629.28;;;9.85;100.00
63739;BME280;68816;45.558;10.070;2024-03-06T06:50:56;99625.22;;;9.99;100.00
63739;BME280;68816;45.558;10.070;2024-03-06T06:53:22;99627.25;;;9.92;100.00
63739;BME280;68816;45.558;10.070;2024-03-06T06:55:47;99632.31;;;9.83;100.00
63739;BME280;68816;45.558;10.070;2024-03-06T06:58:12;99632.66;;;9.87;100.00
63739;BME280;68816;45.558;10.070;2024-03-06T07:00:38;99636.88;;;9.78;100.00
63739;BME280;68816;45.558;10.070;2024-03-06T07:03:04;99646.59;;;9.92;100.00
63739;BME280;68816;45.558;10.070;2024-03-06T07:05:30;99636.03;;;10.01;100.00
63739;BME280;68816;45.558;10.070;2024-03-06T07:07:55;99640.22;;;9.68;100.00
63739;BME280;68816;45.558;10.070;2024-03-06T07:10:21;99644.31;;;9.42;100.00
63739;BME280;68816;45.558;10.070;2024-03-06T07:12:47;99658.97;;;9.78;100.00
63739;BME280;68816;45.558;10.070;2024-03-06T07:15:12;99652.13;;;9.69;100.00
63739;BME280;68816;45.558;10.070;2024-03-06T07:17:38;99656.78;;;9.68;100.00
63739;BME280;68816;45.558;10.070;2024-03-06T07:20:04;99676.34;;;9.90;100.00
63739;BME280;68816;45.558;10.070;2024-03-06T07:22:31;99678.41;;;10.06;100.00
63739;BME280;68816;45.558;10.070;2024-03-06T07:24:59;99670.81;;;10.25;100.00
63739;BME280;68816;45.558;10.070;2024-03-06T07:27:25;99677.53;;;10.41;100.00
63739;BME280;68816;45.558;10.070;2024-03-06T07:29:50;99693.69;;;10.60;99.65
63739;BME280;68816;45.558;10.070;2024-03-06T07:32:15;99694.66;;;10.54;100.00
63739;BME280;68816;45.558;10.070;2024-03-06T07:34:41;99696.91;;;10.69;100.00
63739;BME280;68816;45.558;10.070;2024-03-06T07:37:06;99689.00;;;10.61;100.00
63739;BME280;68816;45.558;10.070;2024-03-06T07:39:32;99697.06;;;10.62;99.67
63739;BME280;68816;45.558;10.070;2024-03-06T07:41:57;99707.41;;;10.55;100.00
63739;BME280;68816;45.558;10.070;2024-03-06T07:44:23;99695.81;;;10.42;100.00
63739;BME280;68816;45.558;10.070;2024-03-06T07:46:48;99692.38;;;10.63;99.79
63739;BME280;68816;45.558;10.070;2024-03-06T07:49:14;99696.72;;;10.59;100.00
63739;BME280;68816;45.558;10.070;2024-03-06T07:51:39;99703.16;;;10.76;99.96
63739;BME280;68816;45.558;10.070;2024-03-06T07:54:06;99708.31;;;10.73;99.06
63739;BME280;68816;45.558;10.070;2024-03-06T07:56:31;99708.38;;;10.89;98.10
63739;BME280;68816;45.558;10.070;2024-03-06T07:58:57;99709.59;;;10.93;97.43
63739;BME280;68816;45.558;10.070;2024-03-06T08:01:22;99717.19;;;10.86;98.87
63739;BME280;68816;45.558;10.070;2024-03-06T08:03:49;99717.00;;;10.64;99.46
63739;BME280;68816;45.558;10.070;2024-03-06T08:06:14;99728.78;;;10.72;100.00
63739;BME280;68816;45.558;10.070;2024-03-06T08:08:41;99724.22;;;10.65;99.65
63739;BME280;68816;45.558;10.070;2024-03-06T08:11:07;99722.84;;;10.80;100.00
63739;BME280;68816;45.558;10.070;2024-03-06T08:13:32;99725.94;;;10.95;97.97
63739;BME280;68816;45.558;10.070;2024-03-06T08:15:57;99726.88;;;11.00;97.57
63739;BME280;68816;45.558;10.070;2024-03-06T08:18:23;99729.75;;;11.05;98.79
63739;BME280;68816;45.558;10.070;2024-03-06T08:20:48;99732.56;;;10.94;98.91
63739;BME280;68816;45.558;10.070;2024-03-06T08:23:14;99737.69;;;11.02;97.17
63739;BME280;68816;45.558;10.070;2024-03-06T08:25:39;99729.66;;;11.00;99.13
63739;BME280;68816;45.558;10.070;2024-03-06T08:28:06;99737.72;;;11.19;98.32
63739;BME280;68816;45.558;10.070;2024-03-06T08:30:32;99736.97;;;11.06;99.12
63739;BME280;68816;45.558;10.070;2024-03-06T08:32:58;99738.22;;;10.87;98.83
63739;BME280;68816;45.558;10.070;2024-03-06T08:35:23;99745.31;;;10.95;98.45
63739;BME280;68816;45.558;10.070;2024-03-06T08:37:50;99756.81;;;11.03;98.81
63739;BME280;68816;45.558;10.070;2024-03-06T08:40:16;99748.66;;;10.97;100.00
63739;BME280;68816;45.558;10.070;2024-03-06T08:42:49;99761.13;;;11.11;100.00
63739;BME280;68816;45.558;10.070;2024-03-06T08:45:18;99757.09;;;11.19;100.00
63739;BME280;68816;45.558;10.070;2024-03-06T08:47:45;99769.00;;;11.19;97.38
63739;BME280;68816;45.558;10.070;2024-03-06T08:50:12;99775.94;;;11.05;98.57
63739;BME280;68816;45.558;10.070;2024-03-06T08:52:38;99770.25;;;10.83;100.00
63739;BME280;68816;45.558;10.070;2024-03-06T08:55:04;99781.16;;;10.78;100.00
63739;BME280;68816;45.558;10.070;2024-03-06T08:57:31;99771.31;;;10.82;100.00
63739;BME280;68816;45.558;10.070;2024-03-06T08:59:57;99775.78;;;10.83;100.00
63739;BME280;68816;45.558;10.070;2024-03-06T09:02:23;99783.88;;;11.01;98.94
63739;BME280;68816;45.558;10.070;2024-03-06T09:04:49;99783.13;;;11.18;98.84
63739;BME280;68816;45.558;10.070;2024-03-06T09:07:17;99787.06;;;11.22;99.13
63739;BME280;68816;45.558;10.070;2024-03-06T09:09:43;99788.31;;;11.02;98.50
63739;BME280;68816;45.558;10.070;2024-03-06T09:12:09;99780.53;;;10.99;100.00
63739;BME280;68816;45.558;10.070;2024-03-06T09:14:40;99789.22;;;11.20;100.00
63739;BME280;68816;45.558;10.070;2024-03-06T09:17:07;99789.69;;;10.88;100.00
63739;BME280;68816;45.558;10.070;2024-03-06T09:19:35;99801.31;;;11.02;100.00
63739;BME280;68816;45.558;10.070;2024-03-06T09:22:01;99805.09;;;10.73;100.00
63739;BME280;68816;45.558;10.070;2024-03-06T09:24:28;99803.06;;;10.68;100.00
63739;BME280;68816;45.558;10.070;2024-03-06T09:26:54;99810.19;;;10.64;100.00
63739;BME280;68816;45.558;10.070;2024-03-06T09:29:19;99811.59;;;10.66;100.00
63739;BME280;68816;45.558;10.070;2024-03-06T09:31:46;99820.16;;;10.77;100.00
63739;BME280;68816;45.558;10.070;2024-03-06T09:34:13;99826.16;;;10.74;100.00
63739;BME280;68816;45.558;10.070;2024-03-06T09:36:40;99820.72;;;10.90;100.00
63739;BME280;68816;45.558;10.070;2024-03-06T09:39:16;99812.63;;;11.12;100.00
63739;BME280;68816;45.558;10.070;2024-03-06T09:41:44;99816.53;;;11.28;100.00
63739;BME280;68816;45.558;10.070;2024-03-06T09:44:10;99819.84;;;11.41;100.00
63739;BME280;68816;45.558;10.070;2024-03-06T09:46:36;99825.72;;;11.45;100.00
63739;BME280;68816;45.558;10.070;2024-03-06T09:49:02;99821.44;;;11.54;100.00
63739;BME280;68816;45.558;10.070;2024-03-06T09:51:28;99816.41;;;11.51;100.00
63739;BME280;68816;45.558;10.070;2024-03-06T09:53:54;99817.66;;;11.43;100.00
63739;BME280;68816;45.558;10.070;2024-03-06T09:56:20;99830.91;;;11.70;100.00
63739;BME280;68816;45.558;10.070;2024-03-06T09:58:46;99819.53;;;11.83;98.25
63739;BME280;68816;45.558;10.070;2024-03-06T10:01:13;99833.91;;;12.13;97.61
63739;BME280;68816;45.558;10.070;2024-03-06T10:03:39;99835.84;;;12.13;95.03
63739;BME280;68816;45.558;10.070;2024-03-06T10:06:08;99838.97;;;12.16;93.98
63739;BME280;68816;45.558;10.070;2024-03-06T10:08:34;99838.53;;;12.08;93.97
63739;BME280;68816;45.558;10.070;2024-03-06T10:11:00;99838.34;;;11.98;94.63
63739;BME280;68816;45.558;10.070;2024-03-06T10:13:26;99842.22;;;11.68;96.96
63739;BME280;68816;45.558;10.070;2024-03-06T10:16:02;99841.38;;;11.68;98.64
63739;BME280;68816;45.558;10.070;2024-03-06T10:18:29;99832.44;;;11.77;97.24
63739;BME280;68816;45.558;10.070;2024-03-06T10:20:56;99844.22;;;11.84;97.14
63739;BME280;68816;45.558;10.070;2024-03-06T10:23:22;99827.28;;;12.14;98.74
63739;BME280;68816;45.558;10.070;2024-03-06T10:25:48;99819.69;;;12.43;98.11
63739;BME280;68816;45.558;10.070;2024-03-06T10:28:22;99834.09;;;12.40;93.20
63739;BME280;68816;45.558;10.070;2024-03-06T10:30:49;99833.25;;;12.23;98.42
63739;BME280;68816;45.558;10.070;2024-03-06T10:33:16;99833.66;;;12.87;94.35
63739;BME280;68816;45.558;10.070;2024-03-06T10:35:46;99836.09;;;13.97;85.01
63739;BME280;68816;45.558;10.070;2024-03-06T10:38:14;99832.66;;;14.44;80.04
63739;BME280;68816;45.558;10.070;2024-03-06T10:40:43;99837.22;;;14.60;81.77
63739;BME280;68816;45.558;10.070;2024-03-06T10:43:09;99842.22;;;13.99;85.37
63739;BME280;68816;45.558;10.070;2024-03-06T10:48:08;99844.44;;;13.70;84.79
63739;BME280;68816;45.558;10.070;2024-03-06T10:50:39;99853.09;;;13.25;85.72
63739;BME280;68816;45.558;10.070;2024-03-06T10:53:08;99850.19;;;13.64;85.94
63739;BME280;68816;45.558;10.070;2024-03-06T10:55:35;99856.97;;;13.99;85.28
63739;BME280;68816;45.558;10.070;2024-03-06T10:58:03;99835.69;;;14.15;82.76
63739;BME280;68816;45.558;10.070;2024-03-06T11:00:30;99847.22;;;14.56;80.94
63739;BME280;68816;45.558;10.070;2024-03-06T11:02:57;99848.22;;;13.86;81.55
63739;BME280;68816;45.558;10.070;2024-03-06T11:05:23;99846.25;;;13.86;80.14
63739;BME280;68816;45.558;10.070;2024-03-06T11:07:50;99843.53;;;14.18;82.16
63739;BME280;68816;45.558;10.070;2024-03-06T11:10:30;99844.44;;;14.29;82.54
63739;BME280;68816;45.558;10.070;2024-03-06T11:12:55;99846.25;;;13.86;81.07
63739;BME280;68816;45.558;10.070;2024-03-06T11:15:21;99840.41;;;13.83;82.86
63739;BME280;68816;45.558;10.070;2024-03-06T11:17:47;99839.63;;;13.61;83.50
63739;BME280;68816;45.558;10.070;2024-03-06T11:20:15;99832.72;;;13.41;85.61
63739;BME280;68816;45.558;10.070;2024-03-06T11:28:34;99816.69;;;14.71;78.65
63739;BME280;68816;45.558;10.070;2024-03-06T11:31:05;99826.59;;;14.99;77.46
63739;BME280;68816;45.558;10.070;2024-03-06T11:33:45;99828.63;;;16.26;72.65
63739;BME280;68816;45.558;10.070;2024-03-06T11:38:51;99822.38;;;17.80;58.47
63739;BME280;68816;45.558;10.070;2024-03-06T11:44:15;99814.88;;;15.59;69.28
63739;BME280;68816;45.558;10.070;2024-03-06T11:46:48;99819.72;;;15.21;72.54
63739;BME280;68816;45.558;10.070;2024-03-06T11:49:18;99820.66;;;14.85;71.72
63739;BME280;68816;45.558;10.070;2024-03-06T11:51:46;99823.13;;;15.39;74.06
63739;BME280;68816;45.558;10.070;2024-03-06T11:54:12;99827.94;;;15.48;71.13
63739;BME280;68816;45.558;10.070;2024-03-06T11:56:44;99819.97;;;15.92;71.46
63739;BME280;68816;45.558;10.070;2024-03-06T11:59:10;99808.25;;;16.16;68.22
63739;BME280;68816;45.558;10.070;2024-03-06T12:01:40;99807.69;;;16.39;68.44
63739;BME280;68816;45.558;10.070;2024-03-06T12:04:06;99818.31;;;16.12;68.25
63739;BME280;68816;45.558;10.070;2024-03-06T12:06:34;99809.88;;;15.66;69.46
63739;BME280;68816;45.558;10.070;2024-03-06T12:09:00;99817.03;;;15.47;72.67
63739;BME280;68816;45.558;10.070;2024-03-06T12:11:26;99817.38;;;14.93;72.59
63739;BME280;68816;45.558;10.070;2024-03-06T12:13:53;99822.41;;;14.54;82.62
63739;BME280;68816;45.558;10.070;2024-03-06T12:16:19;99820.28;;;14.34;86.54
63739;BME280;68816;45.558;10.070;2024-03-06T12:18:45;99827.34;;;14.15;83.10
63739;BME280;68816;45.558;10.070;2024-03-06T12:21:11;99828.81;;;13.91;84.26
63739;BME280;68816;45.558;10.070;2024-03-06T12:23:39;99831.97;;;13.73;89.94
63739;BME280;68816;45.558;10.070;2024-03-06T12:26:06;99834.09;;;13.66;89.73
63739;BME280;68816;45.558;10.070;2024-03-06T12:28:32;99826.09;;;13.21;87.31
63739;BME280;68816;45.558;10.070;2024-03-06T12:30:57;99821.41;;;13.04;88.47
63739;BME280;68816;45.558;10.070;2024-03-06T12:33:26;99820.66;;;13.31;89.32
63739;BME280;68816;45.558;10.070;2024-03-06T12:36:07;99812.88;;;13.54;88.58
63739;BME280;68816;45.558;10.070;2024-03-06T12:38:36;99821.66;;;13.68;83.39
63739;BME280;68816;45.558;10.070;2024-03-06T12:41:02;99827.47;;;13.67;80.93
63739;BME280;68816;45.558;10.070;2024-03-06T12:43:28;99818.47;;;13.60;81.45
63739;BME280;68816;45.558;10.070;2024-03-06T12:45:56;99817.03;;;13.79;77.07
63739;BME280;68816;45.558;10.070;2024-03-06T12:48:23;99832.25;;;16.82;71.23
63739;BME280;68816;45.558;10.070;2024-03-06T12:50:49;99825.16;;;21.11;50.31
63739;BME280;68816;45.558;10.070;2024-03-06T12:53:20;99818.94;;;23.25;41.64
63739;BME280;68816;45.558;10.070;2024-03-06T12:55:46;99806.13;;;21.49;46.77
63739;BME280;68816;45.558;10.070;2024-03-06T12:58:15;99813.34;;;19.37;51.03